Tuesday, March 31, 2015
06:41 UTC
  |  Log In   |  Register Free
Airport Search:

Madison Municipal Airport
(KIMS)

Madison Municipal Airport Diagram
No Airport Diagram Available

FAA data valid effective March 05, 2015 - April 30, 2015 (unless otherwise noted).

 
 
 
 
 
 
 
 
 
 
 
 
 
 

Current Aviation Weather for Madison Municipal Airport (KIMS)

The most recent METAR observation for KIMS was updated at: 0613
METAR Summary (Translated METAR)
KIMS
310554Z AUTO 19008KT 10SM CLR 08/M01 A3000 RMK AO1
KJVY
030145Z 34005KT 10SM CLR 00/M11 A3027 RMK LAST
(26.9 nm SW from KIMS)
KLOU
310553Z AUTO 18003KT 10SM CLR 08/00 A3002 RMK AO2 SLP166 T00830000 10150 20083 58016
(33.3 nm SW from KIMS)
TAF
No TAF information found within 50 nm of KLOU
  Airport Weather Conditions for KIMS

Current weather conditions are
not available for IMS


The nearest NOAA weather station
is at LOU, (33.3 nm SW from IMS)
  
 Current Weather at LOU
47° F
Fair
South winds at 3.5 mph
LOU NOAA Radar

Pressure: 30.02 in
Humidity: 56%
Wind: South at 3.5 MPH (3 KT)
Dew Point: 32.0°F
Visibility: 10.00 mi


Airport Weather Forecast for KIMS

Translated METAR and TAF for KLOU
Translated METAR for KLOU (0641 UTC 31 March 2015)
found at http://aviationweather.gov/adds/metars/
 
METAR text: KLOU 310553Z AUTO 18003KT 10SM CLR 08/00 A3002 RMK AO2 SLP166 T00830000 10150 20083 58016
Conditions at: KLOU (LOUISVILLE/BOWMN, KY, US) observed 0553 UTC 31 March 2015
Temperature: 8.3°C (47°F)
Dewpoint: 0.0°C (32°F) [RH = 56%]
Pressure (altimeter): 30.02 inches Hg (1016.7 mb)
[Sea-level pressure: 1016.6 mb]
Winds: from the S (180 degrees) at 3 MPH (3 knots; 1.6 m/s)
Visibility: 10 or more miles (16+ km)
Ceiling: at least 12,000 feet AGL
Clouds: sky clear below 12,000 feet AGL
Weather: automated observation with no human augmentation;
there may or may not be significant weather present at this time
Translated TAF for KLOU

There is no translated TAF available for this airport

Find All Airport Services Find A Hotel Find A Rental Car Find A Golf Course Find A Restaurant $100 Hamburger



FBO's on the Field
FBO Company Facility Photos Services Transportation Aviation Fuel Prices: Prices include tax
Catering Weather Repair Courtesy Rental Type 100LL JetA JetA+ MOGAS 8087
 
City of Madison

Currently rated 4.8 by 1 person
FS:Phillips 66
Last Updated: Mar-19
Login to update fuel prices
SS:
Contact City of MadisonMore FBO Information
 
Add another FBO Facility Photos Catering Weather Repair Courtesy Rental Type 100LL JetA JetA+ MOGAS 8087
Services Transportation Aviation Fuel Prices: Prices include tax


model-print
model-print
model-print
model-print